createdAt,value
2022-07-25T04:06:48.716Z,26.64
2022-07-25T04:12:50.919Z,26.58
2022-07-25T04:18:52.925Z,26.45
2022-07-25T04:24:55.724Z,26.54
2022-07-25T04:30:57.806Z,26.62
2022-07-25T04:36:59.833Z,26.71
2022-07-25T04:43:03.519Z,26.69
2022-07-25T04:49:05.721Z,26.73
2022-07-25T04:55:08.386Z,26.78
2022-07-25T05:01:10.877Z,26.80
2022-07-25T05:07:13.145Z,26.72
2022-07-25T05:13:16.445Z,26.65
2022-07-25T05:19:18.866Z,26.93
2022-07-25T05:25:21.216Z,27.24
2022-07-25T05:31:23.178Z,27.27
2022-07-25T05:37:26.875Z,27.54
2022-07-25T05:43:29.428Z,27.76
2022-07-25T05:49:31.474Z,28.03
2022-07-25T05:55:33.538Z,28.16
2022-07-25T06:01:35.607Z,28.23
2022-07-25T06:07:38.051Z,28.28
2022-07-25T06:13:40.517Z,28.38
2022-07-25T06:19:42.722Z,28.70
2022-07-25T06:25:50.030Z,28.84
2022-07-25T06:31:52.981Z,28.85
2022-07-25T06:37:55.440Z,29.09
2022-07-25T06:43:57.586Z,28.84
2022-07-25T06:49:59.583Z,29.02
2022-07-25T06:56:02.774Z,29.34
2022-07-25T07:02:05.191Z,30.19
2022-07-25T07:08:08.696Z,30.25
2022-07-25T07:14:12.401Z,30.74
2022-07-25T07:20:14.620Z,30.66
2022-07-25T07:26:17.984Z,31.12
2022-07-25T07:32:20.118Z,31.37
2022-07-25T07:38:22.165Z,31.49
2022-07-25T07:44:24.279Z,31.46
2022-07-25T07:50:29.833Z,31.67
2022-07-25T07:56:31.922Z,31.51
2022-07-25T08:02:43.776Z,32.07
2022-07-25T08:08:46.318Z,31.63
2022-07-25T08:14:49.823Z,32.01
2022-07-25T08:20:52.871Z,31.78
2022-07-25T08:26:54.886Z,32.13
2022-07-25T08:33:00.541Z,32.59
2022-07-25T08:39:03.365Z,32.06
2022-07-25T08:45:07.172Z,31.98
2022-07-25T08:51:12.720Z,32.56
2022-07-25T08:57:16.032Z,32.55
2022-07-25T09:03:18.144Z,32.96
2022-07-25T09:09:31.709Z,32.46
2022-07-25T09:15:36.760Z,32.53
2022-07-25T09:21:40.693Z,32.27
2022-07-25T09:27:43.785Z,32.44
2022-07-25T09:33:51.879Z,32.75
2022-07-25T09:39:54.425Z,33.33
2022-07-25T09:45:59.199Z,33.04
2022-07-25T09:52:03.104Z,33.25
2022-07-25T09:58:06.203Z,33.15
2022-07-25T10:04:19.000Z,33.21
2022-07-25T10:10:25.997Z,33.10
2022-07-25T10:16:28.245Z,32.95
2022-07-25T10:23:00.070Z,32.47
2022-07-25T10:29:09.423Z,32.89
2022-07-25T10:35:18.775Z,33.43
2022-07-25T10:41:26.180Z,33.41
2022-07-25T10:47:28.646Z,33.38
2022-07-25T10:53:45.459Z,33.82
2022-07-25T11:00:08.420Z,33.86
2022-07-25T11:06:15.658Z,34.23
2022-07-25T11:12:17.788Z,34.22
2022-07-25T11:18:31.674Z,34.66
2022-07-25T11:24:40.583Z,34.47
2022-07-25T11:30:43.804Z,34.60
2022-07-25T11:36:46.544Z,34.94
2022-07-25T11:42:52.235Z,34.92
2022-07-25T11:49:05.142Z,35.53
2022-07-25T12:08:50.117Z,34.32
2022-07-25T12:14:52.868Z,34.37
2022-07-25T12:20:55.932Z,34.39
2022-07-25T12:26:58.603Z,34.23
2022-07-25T12:33:01.534Z,34.41
2022-07-25T12:39:05.405Z,34.39
2022-07-25T12:45:12.471Z,33.85
2022-07-25T12:51:14.779Z,33.70
2022-07-25T12:57:17.119Z,33.52
2022-07-25T13:03:19.315Z,34.22
2022-07-25T13:09:23.935Z,34.80
2022-07-25T13:15:28.917Z,34.89
2022-07-25T13:21:33.930Z,34.71
2022-07-25T13:27:37.784Z,34.49
2022-07-25T13:33:41.701Z,34.30
2022-07-25T13:39:44.036Z,34.26
2022-07-25T13:45:46.616Z,34.08
2022-07-25T13:51:49.097Z,33.92
2022-07-25T13:57:53.517Z,33.95
2022-07-25T14:03:56.191Z,33.72
2022-07-25T14:09:59.178Z,34.20
2022-07-25T14:16:01.345Z,34.72
2022-07-25T14:22:03.897Z,34.85
2022-07-25T14:28:06.034Z,35.30
2022-07-25T14:34:08.721Z,35.38
2022-07-25T14:40:11.884Z,35.59
2022-07-25T14:46:14.421Z,35.57
2022-07-25T14:52:17.867Z,35.70
2022-07-25T14:58:20.108Z,35.64
2022-07-25T15:04:25.286Z,35.84
2022-07-25T15:10:30.586Z,35.66
2022-07-25T15:16:32.800Z,35.49
2022-07-25T15:22:35.574Z,35.37
2022-07-25T15:28:39.015Z,35.82
2022-07-25T15:34:41.332Z,35.68
2022-07-25T15:40:44.834Z,35.30
2022-07-25T15:46:47.085Z,34.67
2022-07-25T15:52:49.556Z,35.15
2022-07-25T15:58:52.123Z,34.92
2022-07-25T16:04:55.544Z,34.48
2022-07-25T16:11:00.650Z,34.54
2022-07-25T16:17:03.226Z,34.27
2022-07-25T16:23:05.864Z,33.77
2022-07-25T16:29:07.957Z,33.72
2022-07-25T16:35:10.223Z,33.63
2022-07-25T16:41:12.878Z,33.40
2022-07-25T16:47:14.966Z,33.31
2022-07-25T16:53:18.359Z,33.28
2022-07-25T16:59:20.303Z,33.09
2022-07-25T17:05:22.326Z,32.98
2022-07-25T17:11:25.719Z,32.91
2022-07-25T17:17:28.189Z,32.78
2022-07-25T17:23:30.493Z,32.47
2022-07-25T17:29:32.713Z,32.30
2022-07-25T17:35:35.725Z,32.13
2022-07-25T17:41:39.454Z,32.07
2022-07-25T17:47:43.529Z,31.92
2022-07-25T17:53:46.220Z,31.76
2022-07-25T17:59:50.008Z,31.64
2022-07-25T18:05:54.126Z,31.54
2022-07-25T18:12:00.247Z,31.44
2022-07-25T18:18:02.212Z,31.35
2022-07-25T18:24:05.095Z,31.15
2022-07-25T18:30:08.337Z,31.03
2022-07-25T18:36:10.904Z,30.86
2022-07-25T18:42:13.352Z,30.76
2022-07-25T18:48:15.420Z,30.68
2022-07-25T18:54:17.860Z,30.63
2022-07-25T19:00:19.884Z,30.55
2022-07-25T19:06:22.055Z,30.47
2022-07-25T19:12:26.848Z,30.38
2022-07-25T19:18:29.629Z,30.32
2022-07-25T19:24:32.994Z,30.31
2022-07-25T19:30:35.110Z,30.34
2022-07-25T19:36:38.076Z,30.27
2022-07-25T19:42:41.497Z,30.23
2022-07-25T19:48:43.611Z,30.18
2022-07-25T19:54:45.808Z,30.11
2022-07-25T20:00:49.316Z,30.04
2022-07-25T20:06:51.531Z,29.96
2022-07-25T20:13:01.462Z,29.93
2022-07-25T20:19:09.644Z,29.87
2022-07-25T20:25:14.565Z,29.84
2022-07-25T20:31:18.698Z,29.83
2022-07-25T20:37:20.718Z,29.89
2022-07-25T20:43:23.209Z,29.90
2022-07-25T20:49:25.251Z,29.88
2022-07-25T20:55:28.639Z,29.86
2022-07-25T21:01:31.304Z,29.85
2022-07-25T21:07:34.253Z,29.88
2022-07-25T21:13:38.037Z,29.91
2022-07-25T21:19:40.629Z,29.94
2022-07-25T21:25:43.199Z,29.97
2022-07-25T21:31:45.922Z,30.09
2022-07-25T21:37:48.509Z,30.08
2022-07-25T21:43:51.192Z,30.13
2022-07-25T21:50:13.124Z,30.19
2022-07-25T21:56:16.239Z,30.10
2022-07-25T22:02:18.663Z,30.04
2022-07-25T22:08:21.911Z,29.96
2022-07-25T22:14:24.059Z,29.90
2022-07-25T22:20:26.745Z,29.93
2022-07-25T22:26:31.146Z,29.90
2022-07-25T22:32:33.561Z,29.74
2022-07-25T22:38:35.755Z,29.64
2022-07-25T22:44:38.034Z,29.62
2022-07-25T22:50:41.642Z,29.53
2022-07-25T22:56:43.742Z,29.46
2022-07-25T23:02:45.877Z,29.42
2022-07-25T23:08:48.560Z,29.33
2022-07-25T23:14:50.716Z,29.25
2022-07-25T23:20:52.708Z,29.16
2022-07-25T23:26:58.253Z,29.06
2022-07-25T23:33:00.206Z,28.93
2022-07-25T23:39:02.919Z,28.85
2022-07-25T23:45:07.574Z,28.85
2022-07-25T23:51:11.548Z,28.89
2022-07-25T23:57:13.520Z,28.87
